createdAt,value
2023-04-06T00:02:24.070Z,101742.44
2023-04-06T00:05:28.696Z,101737.00
2023-04-06T00:08:32.420Z,101736.16
2023-04-06T00:11:35.244Z,101737.19
2023-04-06T00:14:38.577Z,101738.16
2023-04-06T00:17:42.471Z,101735.44
2023-04-06T00:20:46.969Z,101731.22
2023-04-06T00:23:49.953Z,101732.19
2023-04-06T00:26:53.024Z,101729.84
2023-04-06T00:29:56.191Z,101731.09
2023-04-06T00:32:59.503Z,101728.13
2023-04-06T00:36:03.967Z,101722.78
2023-04-06T00:39:07.366Z,101730.19
2023-04-06T00:42:15.245Z,101732.06
2023-04-06T00:45:18.432Z,101723.28
2023-04-06T00:48:21.454Z,101729.28
2023-04-06T00:51:26.433Z,101724.88
2023-04-06T00:54:29.722Z,101723.56
2023-04-06T00:57:33.424Z,101725.56
2023-04-06T01:00:36.337Z,101724.91
2023-04-06T01:03:39.635Z,101725.09
2023-04-06T01:06:44.126Z,101723.53
2023-04-06T01:09:47.368Z,101721.28
2023-04-06T01:12:50.368Z,101718.47
2023-04-06T01:15:53.570Z,101720.63
2023-04-06T01:18:56.922Z,101713.22
2023-04-06T01:22:01.247Z,101716.69
2023-04-06T01:25:08.973Z,101717.88
2023-04-06T01:28:11.828Z,101717.16
2023-04-06T01:31:14.836Z,101716.84
2023-04-06T01:34:17.817Z,101712.84
2023-04-06T01:37:20.939Z,101713.88
2023-04-06T01:40:25.602Z,101715.81
2023-04-06T01:43:28.417Z,101717.59
2023-04-06T01:46:31.557Z,101717.47
2023-04-06T01:49:34.832Z,101714.53
2023-04-06T01:52:38.144Z,101711.72
2023-04-06T01:55:42.913Z,101716.06
2023-04-06T01:58:45.782Z,101712.38
2023-04-06T02:01:48.768Z,101711.25
2023-04-06T02:04:51.981Z,101703.66
2023-04-06T02:07:54.950Z,101701.13
2023-04-06T02:10:59.379Z,101703.22
2023-04-06T02:14:02.689Z,101701.44
2023-04-06T02:17:05.972Z,101708.03
2023-04-06T02:20:10.210Z,101701.78
2023-04-06T02:23:13.338Z,101705.84
2023-04-06T02:26:17.910Z,101704.00
2023-04-06T02:29:21.286Z,101703.88
2023-04-06T02:32:24.298Z,101709.28
2023-04-06T02:35:28.002Z,101701.88
2023-04-06T02:38:30.993Z,101702.44
2023-04-06T02:41:35.386Z,101694.38
2023-04-06T02:44:38.385Z,101701.66
2023-04-06T02:47:41.518Z,101703.19
2023-04-06T02:50:44.378Z,101708.13
2023-04-06T02:53:47.599Z,101710.69
2023-04-06T02:56:52.594Z,101709.34
2023-04-06T02:59:55.854Z,101712.88
2023-04-06T03:02:58.973Z,101707.19
2023-04-06T03:06:01.848Z,101712.28
2023-04-06T03:09:05.002Z,101713.66
2023-04-06T03:12:10.294Z,101712.13
2023-04-06T03:15:13.505Z,101711.47
2023-04-06T03:18:16.603Z,101715.91
2023-04-06T03:21:20.265Z,101715.06
2023-04-06T03:24:23.236Z,101706.09
2023-04-06T03:27:27.427Z,101707.44
2023-04-06T03:30:30.523Z,101713.88
2023-04-06T03:33:33.301Z,101716.56
2023-04-06T03:36:36.756Z,101714.75
2023-04-06T03:39:39.839Z,101717.94
2023-04-06T03:42:44.053Z,101729.75
2023-04-06T03:45:46.893Z,101730.78
2023-04-06T03:48:50.913Z,101728.25
2023-04-06T03:51:54.960Z,101735.00
2023-04-06T03:54:58.728Z,101734.50
2023-04-06T03:58:03.568Z,101741.09
2023-04-06T04:01:06.484Z,101751.91
2023-04-06T04:04:09.277Z,101752.56
2023-04-06T04:07:12.513Z,101749.56
2023-04-06T04:10:15.710Z,101753.94
2023-04-06T04:13:19.912Z,101749.88
2023-04-06T04:16:23.176Z,101754.13
2023-04-06T04:19:26.029Z,101755.28
2023-04-06T04:22:29.704Z,101755.28
2023-04-06T04:25:32.713Z,101755.81
2023-04-06T04:28:36.891Z,101750.41
2023-04-06T04:31:39.843Z,101749.22
2023-04-06T04:34:42.811Z,101758.16
2023-04-06T04:37:46.023Z,101751.72
2023-04-06T04:40:48.969Z,101758.31
2023-04-06T04:43:53.158Z,101758.31
2023-04-06T04:46:56.185Z,101759.19
2023-04-06T04:49:59.113Z,101758.00
2023-04-06T04:53:01.961Z,101756.47
2023-04-06T04:56:05.192Z,101756.47
2023-04-06T04:59:09.731Z,101760.69
2023-04-06T05:02:13.409Z,101764.06
2023-04-06T05:05:16.520Z,101755.63
2023-04-06T05:08:19.519Z,101764.91
2023-04-06T05:11:22.360Z,101769.63
2023-04-06T05:14:26.877Z,101783.13
2023-04-06T05:17:30.063Z,101777.38
2023-04-06T05:20:33.068Z,101776.69
2023-04-06T05:23:36.091Z,101782.97
2023-04-06T05:26:38.997Z,101774.63
2023-04-06T05:29:43.438Z,101775.16
2023-04-06T05:32:46.613Z,101782.56
2023-04-06T05:35:49.523Z,101780.69
2023-04-06T05:38:53.933Z,101777.31
2023-04-06T05:41:57.568Z,101782.50
2023-04-06T05:45:01.934Z,101785.38
2023-04-06T05:48:05.081Z,101787.88
2023-04-06T05:51:08.341Z,101785.56
2023-04-06T05:54:11.428Z,101787.50
2023-04-06T05:57:14.473Z,101785.38
2023-04-06T06:00:21.571Z,101782.13
2023-04-06T06:03:24.756Z,101781.72
2023-04-06T06:06:29.463Z,101792.13
2023-04-06T06:09:32.328Z,101784.31
2023-04-06T06:12:35.329Z,101789.75
2023-04-06T06:15:39.788Z,101787.84
2023-04-06T06:18:42.808Z,101787.94
2023-04-06T06:25:06.403Z,101784.22
2023-04-06T06:28:09.263Z,101788.50
2023-04-06T06:31:13.613Z,101785.28
2023-04-06T06:34:16.485Z,101781.13
2023-04-06T06:40:39.776Z,101789.28
2023-04-06T06:43:42.732Z,101784.31
2023-04-06T06:46:47.118Z,101783.94
2023-04-06T06:49:50.003Z,101776.84
2023-04-06T06:52:53.024Z,101782.97
2023-04-06T06:55:55.926Z,101784.13
2023-04-06T06:58:58.807Z,101784.41
2023-04-06T07:02:03.142Z,101785.25
2023-04-06T07:05:19.839Z,101782.56
2023-04-06T07:08:30.156Z,101780.13
2023-04-06T07:11:32.957Z,101777.34
2023-04-06T07:14:35.961Z,101782.13
2023-04-06T07:17:42.293Z,101777.69
2023-04-06T07:20:45.374Z,101781.28
2023-04-06T07:23:49.257Z,101784.59
2023-04-06T07:26:52.276Z,101778.97
2023-04-06T07:29:55.360Z,101786.19
2023-04-06T07:33:00.049Z,101784.69
2023-04-06T07:36:05.653Z,101779.25
2023-04-06T07:39:10.405Z,101767.31
2023-04-06T07:42:13.177Z,101772.81
2023-04-06T07:45:17.046Z,101781.25
2023-04-06T07:48:21.354Z,101778.31
2023-04-06T07:51:24.221Z,101769.00
2023-04-06T07:54:27.336Z,101764.59
2023-04-06T07:57:30.151Z,101766.09
2023-04-06T08:00:33.701Z,101774.47
2023-04-06T08:03:38.785Z,101779.97
2023-04-06T08:06:42.242Z,101777.38
2023-04-06T08:09:45.181Z,101775.09
2023-04-06T08:12:48.009Z,101774.06
2023-04-06T08:15:51.058Z,101770.66
2023-04-06T08:18:55.289Z,101770.69
2023-04-06T08:21:58.201Z,101781.13
2023-04-06T08:25:01.256Z,101774.72
2023-04-06T08:28:04.252Z,101776.22
2023-04-06T08:31:08.039Z,101769.47
2023-04-06T08:34:14.097Z,101772.34
2023-04-06T08:37:17.864Z,101781.97
2023-04-06T08:40:21.159Z,101774.25
2023-04-06T08:43:25.545Z,101776.63
2023-04-06T08:46:31.898Z,101782.16
2023-04-06T08:49:39.737Z,101775.75
2023-04-06T08:52:44.347Z,101780.25
2023-04-06T08:55:47.597Z,101784.97
2023-04-06T08:58:51.920Z,101778.75
2023-04-06T09:01:57.643Z,101778.34
2023-04-06T09:05:03.123Z,101769.25
2023-04-06T09:08:06.632Z,101777.66
2023-04-06T09:11:10.867Z,101770.09
2023-04-06T09:14:14.421Z,101782.00
2023-04-06T09:17:22.842Z,101766.88
2023-04-06T09:20:29.122Z,101769.34
2023-04-06T09:23:32.437Z,101775.91
2023-04-06T09:26:47.126Z,101770.75
2023-04-06T09:29:50.088Z,101766.25
2023-04-06T09:32:55.437Z,101757.75
2023-04-06T09:36:00.080Z,101759.44
2023-04-06T09:39:04.991Z,101748.75
2023-04-06T09:42:07.923Z,101755.22
2023-04-06T09:45:11.865Z,101758.94
2023-04-06T09:48:14.856Z,101747.25
2023-04-06T09:51:21.791Z,101751.59
2023-04-06T09:54:30.940Z,101742.53
2023-04-06T09:57:38.429Z,101748.41
2023-04-06T10:00:46.924Z,101734.94
2023-04-06T10:03:58.061Z,101733.53
2023-04-06T10:07:04.749Z,101735.25
2023-04-06T10:10:09.813Z,101729.41
2023-04-06T10:13:14.044Z,101732.69
2023-04-06T10:16:17.698Z,101715.75
2023-04-06T10:19:26.741Z,101719.72
2023-04-06T10:22:38.911Z,101732.69
2023-04-06T10:25:42.190Z,101731.97
2023-04-06T10:28:47.804Z,101724.38
2023-04-06T10:31:51.223Z,101725.22
2023-04-06T10:34:54.540Z,101725.44
2023-04-06T10:38:07.133Z,101736.25
2023-04-06T10:41:12.398Z,101724.13
2023-04-06T10:44:20.716Z,101727.03
2023-04-06T10:47:23.724Z,101729.41
2023-04-06T10:50:27.068Z,101721.53
2023-04-06T10:53:31.527Z,101722.06
2023-04-06T10:56:36.573Z,101726.75
2023-04-06T10:59:44.079Z,101720.66
2023-04-06T11:02:47.584Z,101717.19
2023-04-06T11:05:52.566Z,101716.06
2023-04-06T11:08:58.286Z,101710.44
2023-04-06T11:12:01.906Z,101705.88
2023-04-06T11:15:06.724Z,101707.72
2023-04-06T11:18:09.755Z,101699.59
2023-04-06T11:21:13.087Z,101697.91
2023-04-06T11:24:20.292Z,101702.84
2023-04-06T11:27:24.006Z,101698.34
2023-04-06T11:30:27.976Z,101689.44
2023-04-06T11:33:32.001Z,101680.88
2023-04-06T11:36:36.867Z,101680.03
2023-04-06T11:39:44.165Z,101680.28
2023-04-06T11:42:54.410Z,101680.31
2023-04-06T11:46:03.758Z,101671.13
2023-04-06T11:49:07.512Z,101668.34
2023-04-06T11:52:17.873Z,101675.03
2023-04-06T11:55:22.849Z,101678.38
2023-04-06T11:58:26.344Z,101673.38
2023-04-06T12:01:30.856Z,101676.25
2023-04-06T12:04:34.508Z,101670.00
2023-04-06T12:07:37.843Z,101666.44
2023-04-06T12:10:42.651Z,101664.78
2023-04-06T12:13:46.457Z,101658.97
2023-04-06T12:16:49.860Z,101671.44
2023-04-06T12:19:53.226Z,101655.38
2023-04-06T12:22:57.002Z,101652.31
2023-04-06T12:26:02.341Z,101663.97
2023-04-06T12:29:08.332Z,101652.81
2023-04-06T12:32:12.917Z,101666.66
2023-04-06T12:35:19.261Z,101651.69
2023-04-06T12:38:22.895Z,101645.34
2023-04-06T12:41:27.236Z,101639.28
2023-04-06T12:44:30.989Z,101645.66
2023-04-06T12:47:37.118Z,101647.28
2023-04-06T12:50:40.528Z,101641.16
2023-04-06T12:53:43.641Z,101639.53
2023-04-06T12:56:48.295Z,101630.13
2023-04-06T12:59:51.340Z,101633.47
2023-04-06T13:02:54.562Z,101629.38
2023-04-06T13:05:58.234Z,101632.69
2023-04-06T13:09:01.124Z,101624.94
2023-04-06T13:12:07.711Z,101625.00
2023-04-06T13:15:13.258Z,101629.31
2023-04-06T13:18:16.886Z,101625.25
2023-04-06T13:21:22.012Z,101614.25
2023-04-06T13:24:25.325Z,101619.56
2023-04-06T13:27:29.946Z,101606.75
2023-04-06T13:30:33.540Z,101609.00
2023-04-06T13:33:37.123Z,101607.47
2023-04-06T13:36:43.003Z,101605.56
2023-04-06T13:39:45.960Z,101601.47
2023-04-06T13:42:52.556Z,101596.94
2023-04-06T13:45:59.365Z,101610.41
2023-04-06T13:49:03.525Z,101604.31
2023-04-06T13:52:07.565Z,101598.41
2023-04-06T13:55:11.485Z,101587.63
2023-04-06T13:58:15.551Z,101586.78
2023-04-06T14:01:18.743Z,101584.28
2023-04-06T14:04:22.809Z,101583.84
2023-04-06T14:07:27.926Z,101590.13
2023-04-06T14:10:32.395Z,101588.88
2023-04-06T14:13:36.740Z,101584.59
2023-04-06T14:16:42.035Z,101584.28
2023-04-06T14:19:48.486Z,101594.75
2023-04-06T14:22:53.501Z,101582.16
2023-04-06T14:26:04.927Z,101590.22
2023-04-06T14:29:12.736Z,101585.22
2023-04-06T14:32:15.814Z,101593.03
2023-04-06T14:35:19.263Z,101574.13
2023-04-06T14:38:23.252Z,101588.03
2023-04-06T14:41:28.158Z,101583.78
2023-04-06T14:44:35.297Z,101578.97
2023-04-06T14:47:38.418Z,101573.69
2023-04-06T14:50:41.723Z,101586.69
2023-04-06T14:53:45.504Z,101585.91
2023-04-06T14:56:49.034Z,101572.41
2023-04-06T14:59:57.075Z,101572.72
2023-04-06T15:03:00.505Z,101582.34
2023-04-06T15:06:05.185Z,101572.22
2023-04-06T15:09:10.277Z,101563.84
2023-04-06T15:12:13.963Z,101580.38
2023-04-06T15:15:19.563Z,101573.88
2023-04-06T15:18:22.522Z,101569.47
2023-04-06T15:21:26.444Z,101576.97
2023-04-06T15:24:29.585Z,101561.81
2023-04-06T15:27:33.654Z,101574.09
2023-04-06T15:30:41.095Z,101567.84
2023-04-06T15:33:44.732Z,101567.84
2023-04-06T15:36:48.453Z,101566.41
2023-04-06T15:39:51.717Z,101575.00
2023-04-06T15:42:55.094Z,101562.78
2023-04-06T15:46:02.215Z,101556.38
2023-04-06T15:49:06.312Z,101564.22
2023-04-06T15:52:09.983Z,101561.38
2023-04-06T15:55:12.752Z,101564.09
2023-04-06T15:58:15.885Z,101565.50
2023-04-06T16:01:21.105Z,101561.13
2023-04-06T16:04:24.016Z,101571.47
2023-04-06T16:07:28.063Z,101571.06
2023-04-06T16:10:33.071Z,101565.78
2023-04-06T16:13:38.382Z,101569.53
2023-04-06T16:16:43.901Z,101564.34
2023-04-06T16:19:47.526Z,101575.91
2023-04-06T16:22:51.293Z,101566.09
2023-04-06T16:25:57.770Z,101575.13
2023-04-06T16:29:04.397Z,101575.53
2023-04-06T16:32:11.227Z,101569.81
2023-04-06T16:35:14.267Z,101576.66
2023-04-06T16:38:17.831Z,101568.50
2023-04-06T16:41:21.793Z,101571.19
2023-04-06T16:44:25.122Z,101567.53
2023-04-06T16:47:30.952Z,101579.25
2023-04-06T16:50:36.243Z,101574.22
2023-04-06T16:53:41.569Z,101572.75
2023-04-06T16:56:44.706Z,101571.25
2023-04-06T16:59:48.091Z,101571.03
2023-04-06T17:02:54.603Z,101570.78
2023-04-06T17:05:57.972Z,101572.09
2023-04-06T17:09:01.041Z,101573.53
2023-04-06T17:12:04.155Z,101577.59
2023-04-06T17:15:10.583Z,101580.59
2023-04-06T17:18:17.420Z,101583.22
2023-04-06T17:21:21.685Z,101579.91
2023-04-06T17:24:25.588Z,101573.41
2023-04-06T17:27:28.934Z,101583.09
2023-04-06T17:30:32.880Z,101582.47
2023-04-06T17:33:38.684Z,101586.06
2023-04-06T17:36:42.163Z,101587.47
2023-04-06T17:39:46.980Z,101588.19
2023-04-06T17:42:52.874Z,101582.78
2023-04-06T17:45:58.501Z,101598.28
2023-04-06T17:49:02.905Z,101597.88
2023-04-06T17:52:06.374Z,101591.31
2023-04-06T17:55:10.259Z,101598.41
2023-04-06T17:58:13.866Z,101605.88
2023-04-06T18:01:20.175Z,101606.41
2023-04-06T18:04:24.852Z,101607.25
2023-04-06T18:07:27.865Z,101606.13
2023-04-06T18:10:32.819Z,101613.44
2023-04-06T18:13:39.286Z,101621.72
2023-04-06T18:16:44.793Z,101619.50
2023-04-06T18:19:50.692Z,101628.88
2023-04-06T18:22:55.697Z,101630.91
2023-04-06T18:25:59.097Z,101631.38
2023-04-06T18:29:06.495Z,101624.63
2023-04-06T18:32:09.584Z,101631.16
2023-04-06T18:35:14.272Z,101629.06
2023-04-06T18:38:19.284Z,101634.78
2023-04-06T18:41:24.492Z,101635.31
2023-04-06T18:44:28.645Z,101637.13
2023-04-06T18:47:32.065Z,101635.47
2023-04-06T18:50:39.341Z,101640.88
2023-04-06T18:53:42.520Z,101643.31
2023-04-06T18:56:46.335Z,101647.28
2023-04-06T18:59:49.094Z,101646.91
2023-04-06T19:02:53.457Z,101649.34
2023-04-06T19:05:59.750Z,101661.75
2023-04-06T19:09:04.670Z,101658.22
2023-04-06T19:12:07.790Z,101653.59
2023-04-06T19:15:11.902Z,101656.59
2023-04-06T19:18:17.441Z,101665.47
2023-04-06T19:21:24.901Z,101659.34
2023-04-06T19:24:28.303Z,101652.66
2023-04-06T19:27:31.222Z,101666.75
2023-04-06T19:30:34.441Z,101661.38
2023-04-06T19:33:39.102Z,101648.56
2023-04-06T19:36:44.303Z,101655.50
2023-04-06T19:39:49.875Z,101652.00
2023-04-06T19:42:54.319Z,101658.72
2023-04-06T19:45:57.258Z,101658.09
2023-04-06T19:49:03.974Z,101652.13
2023-04-06T19:52:10.261Z,101656.00
2023-04-06T19:55:13.078Z,101657.59
2023-04-06T19:58:16.337Z,101649.22
2023-04-06T20:01:23.924Z,101649.91
2023-04-06T20:04:30.152Z,101656.47
2023-04-06T20:07:34.669Z,101660.91
2023-04-06T20:10:39.988Z,101654.63
2023-04-06T20:13:42.978Z,101660.13
2023-04-06T20:16:46.719Z,101659.06
2023-04-06T20:19:52.331Z,101658.22
2023-04-06T20:22:57.076Z,101659.50
2023-04-06T20:26:00.190Z,101656.81
2023-04-06T20:29:03.371Z,101662.47
2023-04-06T20:32:07.247Z,101660.81
2023-04-06T20:35:10.745Z,101660.63
2023-04-06T20:38:17.601Z,101666.50
2023-04-06T20:41:23.501Z,101657.69
2023-04-06T20:44:26.446Z,101655.41
2023-04-06T20:47:29.518Z,101656.84
2023-04-06T20:50:35.718Z,101661.69
2023-04-06T20:53:40.189Z,101657.69
2023-04-06T20:56:44.201Z,101651.41
2023-04-06T20:59:47.628Z,101658.09
2023-04-06T21:02:50.807Z,101648.88
2023-04-06T21:05:53.970Z,101652.47
2023-04-06T21:09:01.217Z,101649.94
2023-04-06T21:12:04.898Z,101658.34
2023-04-06T21:15:10.035Z,101652.91
2023-04-06T21:18:13.299Z,101654.34
2023-04-06T21:21:16.092Z,101652.44
2023-04-06T21:24:20.624Z,101658.09
2023-04-06T21:27:24.452Z,101655.31
2023-04-06T21:30:27.294Z,101649.63
2023-04-06T21:33:32.042Z,101656.38
2023-04-06T21:36:35.902Z,101648.38
2023-04-06T21:39:40.643Z,101651.47
2023-04-06T21:42:43.968Z,101655.03
2023-04-06T21:45:50.506Z,101648.59
2023-04-06T21:48:53.731Z,101648.00
2023-04-06T21:51:56.454Z,101646.09
2023-04-06T21:55:01.842Z,101649.84
2023-04-06T21:58:05.134Z,101654.03
2023-04-06T22:01:11.516Z,101647.28
2023-04-06T22:04:16.243Z,101649.19
2023-04-06T22:07:19.527Z,101644.97
2023-04-06T22:10:24.479Z,101644.47
2023-04-06T22:13:28.089Z,101633.09
2023-04-06T22:16:32.105Z,101643.50
2023-04-06T22:19:35.685Z,101646.84
2023-04-06T22:22:38.453Z,101639.22
2023-04-06T22:25:42.729Z,101634.97
2023-04-06T22:28:50.903Z,101641.13
2023-04-06T22:31:53.855Z,101640.88
2023-04-06T22:34:57.464Z,101640.50
2023-04-06T22:38:01.100Z,101642.38
2023-04-06T22:41:08.593Z,101635.91
2023-04-06T22:44:11.911Z,101638.78
2023-04-06T22:47:15.121Z,101628.75
2023-04-06T22:50:18.273Z,101629.63
2023-04-06T22:53:21.066Z,101629.06
2023-04-06T22:56:25.806Z,101639.66
2023-04-06T22:59:28.525Z,101632.91
2023-04-06T23:02:31.457Z,101630.56
2023-04-06T23:05:34.373Z,101631.47
2023-04-06T23:08:37.107Z,101630.94
2023-04-06T23:11:41.460Z,101635.09
2023-04-06T23:14:44.189Z,101629.22
2023-04-06T23:17:47.126Z,101633.19
2023-04-06T23:20:50.374Z,101627.88
2023-04-06T23:23:53.311Z,101629.13
2023-04-06T23:26:57.625Z,101629.75
2023-04-06T23:30:00.355Z,101621.94
2023-04-06T23:33:03.634Z,101624.28
2023-04-06T23:36:06.947Z,101619.81
2023-04-06T23:39:09.640Z,101618.22
2023-04-06T23:42:13.850Z,101621.00
2023-04-06T23:45:16.560Z,101619.91
2023-04-06T23:48:19.723Z,101619.13
2023-04-06T23:51:22.574Z,101622.72
2023-04-06T23:54:25.317Z,101622.88
2023-04-06T23:57:29.519Z,101613.16
